sensor_id;sensor_type;location;lat;lon;timestamp;temperature;humidity
19870;DHT22;10097;50.862;4.696;2023-03-15T00:00:04;5.10;99.90
19870;DHT22;10097;50.862;4.696;2023-03-15T00:02:31;5.20;99.90
19870;DHT22;10097;50.862;4.696;2023-03-15T00:04:57;5.20;99.90
19870;DHT22;10097;50.862;4.696;2023-03-15T00:07:23;5.10;99.90
19870;DHT22;10097;50.862;4.696;2023-03-15T00:09:51;4.90;99.90
19870;DHT22;10097;50.862;4.696;2023-03-15T00:12:17;4.80;99.90
19870;DHT22;10097;50.862;4.696;2023-03-15T00:14:43;4.60;99.90
19870;DHT22;10097;50.862;4.696;2023-03-15T00:17:08;4.60;99.90
19870;DHT22;10097;50.862;4.696;2023-03-15T00:19:36;4.60;99.90
19870;DHT22;10097;50.862;4.696;2023-03-15T00:22:01;4.80;99.90
19870;DHT22;10097;50.862;4.696;2023-03-15T00:24:27;5.00;99.90
19870;DHT22;10097;50.862;4.696;2023-03-15T00:26:53;4.80;99.90
19870;DHT22;10097;50.862;4.696;2023-03-15T00:29:19;4.80;99.90
19870;DHT22;10097;50.862;4.696;2023-03-15T00:31:44;4.90;99.90
19870;DHT22;10097;50.862;4.696;2023-03-15T00:34:10;5.00;99.90
19870;DHT22;10097;50.862;4.696;2023-03-15T00:36:38;5.10;99.90
19870;DHT22;10097;50.862;4.696;2023-03-15T00:39:05;5.30;99.90
19870;DHT22;10097;50.862;4.696;2023-03-15T00:41:30;5.30;99.90
19870;DHT22;10097;50.862;4.696;2023-03-15T00:43:56;5.20;99.90
19870;DHT22;10097;50.862;4.696;2023-03-15T00:46:22;5.30;99.90
19870;DHT22;10097;50.862;4.696;2023-03-15T00:48:49;5.40;99.90
19870;DHT22;10097;50.862;4.696;2023-03-15T00:51:17;5.50;99.90
19870;DHT22;10097;50.862;4.696;2023-03-15T00:53:44;5.40;99.90
19870;DHT22;10097;50.862;4.696;2023-03-15T00:56:13;5.50;99.90
19870;DHT22;10097;50.862;4.696;2023-03-15T00:58:39;5.50;99.90
19870;DHT22;10097;50.862;4.696;2023-03-15T01:01:14;5.30;99.90
19870;DHT22;10097;50.862;4.696;2023-03-15T01:03:40;5.30;99.90
19870;DHT22;10097;50.862;4.696;2023-03-15T01:06:33;5.40;99.90
19870;DHT22;10097;50.862;4.696;2023-03-15T01:08:59;5.30;99.90
19870;DHT22;10097;50.862;4.696;2023-03-15T01:11:27;5.40;99.90
19870;DHT22;10097;50.862;4.696;2023-03-15T01:13:54;5.40;99.90
19870;DHT22;10097;50.862;4.696;2023-03-15T01:16:20;5.40;99.90
19870;DHT22;10097;50.862;4.696;2023-03-15T01:18:46;5.40;99.90
19870;DHT22;10097;50.862;4.696;2023-03-15T01:21:13;5.40;99.90
19870;DHT22;10097;50.862;4.696;2023-03-15T01:23:40;5.40;99.90
19870;DHT22;10097;50.862;4.696;2023-03-15T01:26:09;5.40;99.90
19870;DHT22;10097;50.862;4.696;2023-03-15T01:28:36;5.30;99.90
19870;DHT22;10097;50.862;4.696;2023-03-15T01:31:01;5.40;99.90
19870;DHT22;10097;50.862;4.696;2023-03-15T01:33:28;5.40;99.90
19870;DHT22;10097;50.862;4.696;2023-03-15T01:36:01;5.40;99.90
19870;DHT22;10097;50.862;4.696;2023-03-15T01:38:27;5.30;99.90
19870;DHT22;10097;50.862;4.696;2023-03-15T01:40:53;5.30;99.90
19870;DHT22;10097;50.862;4.696;2023-03-15T01:43:22;5.10;99.90
19870;DHT22;10097;50.862;4.696;2023-03-15T01:48:42;4.80;99.90
19870;DHT22;10097;50.862;4.696;2023-03-15T01:51:35;4.60;99.90
19870;DHT22;10097;50.862;4.696;2023-03-15T01:56:44;4.50;99.90
19870;DHT22;10097;50.862;4.696;2023-03-15T01:59:15;4.50;99.90
19870;DHT22;10097;50.862;4.696;2023-03-15T02:01:41;4.50;99.90
19870;DHT22;10097;50.862;4.696;2023-03-15T02:04:12;4.40;99.90
19870;DHT22;10097;50.862;4.696;2023-03-15T02:06:40;4.40;99.90
19870;DHT22;10097;50.862;4.696;2023-03-15T02:09:13;4.50;99.90
19870;DHT22;10097;50.862;4.696;2023-03-15T02:11:41;4.30;99.90
19870;DHT22;10097;50.862;4.696;2023-03-15T02:14:11;4.40;99.90
19870;DHT22;10097;50.862;4.696;2023-03-15T02:16:38;4.30;99.90
19870;DHT22;10097;50.862;4.696;2023-03-15T02:19:05;4.20;99.90
19870;DHT22;10097;50.862;4.696;2023-03-15T02:22:01;4.20;99.90
19870;DHT22;10097;50.862;4.696;2023-03-15T02:27:35;4.50;99.90
19870;DHT22;10097;50.862;4.696;2023-03-15T02:30:04;4.50;99.90
19870;DHT22;10097;50.862;4.696;2023-03-15T02:32:30;4.40;99.90
19870;DHT22;10097;50.862;4.696;2023-03-15T02:34:56;4.50;99.90
19870;DHT22;10097;50.862;4.696;2023-03-15T02:37:23;4.50;99.90
19870;DHT22;10097;50.862;4.696;2023-03-15T02:39:48;4.60;99.90
19870;DHT22;10097;50.862;4.696;2023-03-15T02:42:15;4.70;99.90
19870;DHT22;10097;50.862;4.696;2023-03-15T02:44:43;4.70;99.90
19870;DHT22;10097;50.862;4.696;2023-03-15T02:47:26;4.70;99.90
19870;DHT22;10097;50.862;4.696;2023-03-15T02:49:53;4.80;99.90
19870;DHT22;10097;50.862;4.696;2023-03-15T02:52:20;4.90;99.90
19870;DHT22;10097;50.862;4.696;2023-03-15T02:54:46;4.80;99.90
19870;DHT22;10097;50.862;4.696;2023-03-15T02:57:13;4.90;99.90
19870;DHT22;10097;50.862;4.696;2023-03-15T02:59:39;5.00;99.90
19870;DHT22;10097;50.862;4.696;2023-03-15T03:02:07;5.00;99.90
19870;DHT22;10097;50.862;4.696;2023-03-15T03:04:33;5.00;99.90
19870;DHT22;10097;50.862;4.696;2023-03-15T03:06:59;5.00;99.90
19870;DHT22;10097;50.862;4.696;2023-03-15T03:09:25;5.10;99.90
19870;DHT22;10097;50.862;4.696;2023-03-15T03:11:51;5.10;99.90
19870;DHT22;10097;50.862;4.696;2023-03-15T03:14:16;5.00;99.90
19870;DHT22;10097;50.862;4.696;2023-03-15T03:16:42;5.00;99.90
19870;DHT22;10097;50.862;4.696;2023-03-15T03:19:09;4.90;99.90
19870;DHT22;10097;50.862;4.696;2023-03-15T03:21:37;5.10;99.90
19870;DHT22;10097;50.862;4.696;2023-03-15T03:24:02;5.10;99.90
19870;DHT22;10097;50.862;4.696;2023-03-15T03:26:28;5.10;99.90
19870;DHT22;10097;50.862;4.696;2023-03-15T03:28:57;5.00;99.90
19870;DHT22;10097;50.862;4.696;2023-03-15T03:31:25;5.00;99.90
19870;DHT22;10097;50.862;4.696;2023-03-15T03:33:51;5.00;99.90
19870;DHT22;10097;50.862;4.696;2023-03-15T03:36:17;5.00;99.90
19870;DHT22;10097;50.862;4.696;2023-03-15T03:38:44;4.90;99.90
19870;DHT22;10097;50.862;4.696;2023-03-15T03:41:11;4.90;99.90
19870;DHT22;10097;50.862;4.696;2023-03-15T03:43:37;4.90;99.90
19870;DHT22;10097;50.862;4.696;2023-03-15T03:46:03;4.90;99.90
19870;DHT22;10097;50.862;4.696;2023-03-15T03:48:29;5.00;99.90
19870;DHT22;10097;50.862;4.696;2023-03-15T03:50:56;5.00;99.90
19870;DHT22;10097;50.862;4.696;2023-03-15T03:53:22;5.10;99.90
19870;DHT22;10097;50.862;4.696;2023-03-15T03:55:48;5.00;99.90
19870;DHT22;10097;50.862;4.696;2023-03-15T03:58:13;5.00;99.90
19870;DHT22;10097;50.862;4.696;2023-03-15T04:00:39;5.00;99.90
19870;DHT22;10097;50.862;4.696;2023-03-15T04:03:06;5.00;99.90
19870;DHT22;10097;50.862;4.696;2023-03-15T04:05:32;5.10;99.90
19870;DHT22;10097;50.862;4.696;2023-03-15T04:07:58;5.20;99.90
19870;DHT22;10097;50.862;4.696;2023-03-15T04:10:24;5.20;99.90
19870;DHT22;10097;50.862;4.696;2023-03-15T04:12:56;5.20;99.90
19870;DHT22;10097;50.862;4.696;2023-03-15T04:15:23;5.30;99.90
19870;DHT22;10097;50.862;4.696;2023-03-15T04:17:52;5.30;99.90
19870;DHT22;10097;50.862;4.696;2023-03-15T04:20:24;5.30;99.90
19870;DHT22;10097;50.862;4.696;2023-03-15T04:22:50;5.40;99.90
19870;DHT22;10097;50.862;4.696;2023-03-15T04:25:17;5.50;99.90
19870;DHT22;10097;50.862;4.696;2023-03-15T04:27:43;5.50;99.90
19870;DHT22;10097;50.862;4.696;2023-03-15T04:30:09;5.40;99.90
19870;DHT22;10097;50.862;4.696;2023-03-15T04:32:35;5.30;99.90
19870;DHT22;10097;50.862;4.696;2023-03-15T04:35:01;5.30;99.90
19870;DHT22;10097;50.862;4.696;2023-03-15T04:37:27;5.30;99.90
19870;DHT22;10097;50.862;4.696;2023-03-15T04:39:53;5.40;99.90
19870;DHT22;10097;50.862;4.696;2023-03-15T04:42:19;5.40;99.90
19870;DHT22;10097;50.862;4.696;2023-03-15T04:44:45;5.30;99.90
19870;DHT22;10097;50.862;4.696;2023-03-15T04:47:11;5.30;99.90
19870;DHT22;10097;50.862;4.696;2023-03-15T04:49:37;5.40;99.90
19870;DHT22;10097;50.862;4.696;2023-03-15T04:52:03;5.40;99.90
19870;DHT22;10097;50.862;4.696;2023-03-15T04:54:28;5.30;99.90
19870;DHT22;10097;50.862;4.696;2023-03-15T04:56:54;5.30;99.90
19870;DHT22;10097;50.862;4.696;2023-03-15T04:59:20;5.10;99.90
19870;DHT22;10097;50.862;4.696;2023-03-15T05:01:46;5.00;99.90
19870;DHT22;10097;50.862;4.696;2023-03-15T05:04:11;5.00;99.90
19870;DHT22;10097;50.862;4.696;2023-03-15T05:06:37;5.00;99.90
19870;DHT22;10097;50.862;4.696;2023-03-15T05:09:03;4.90;99.90
19870;DHT22;10097;50.862;4.696;2023-03-15T05:11:29;4.80;99.90
19870;DHT22;10097;50.862;4.696;2023-03-15T05:13:55;4.90;99.90
19870;DHT22;10097;50.862;4.696;2023-03-15T05:16:21;4.90;99.90
19870;DHT22;10097;50.862;4.696;2023-03-15T05:18:46;4.80;99.90
19870;DHT22;10097;50.862;4.696;2023-03-15T05:21:12;4.80;99.90
19870;DHT22;10097;50.862;4.696;2023-03-15T05:23:38;4.80;99.90
19870;DHT22;10097;50.862;4.696;2023-03-15T05:26:04;4.70;99.90
19870;DHT22;10097;50.862;4.696;2023-03-15T05:28:29;4.60;99.90
19870;DHT22;10097;50.862;4.696;2023-03-15T05:30:56;4.60;99.90
19870;DHT22;10097;50.862;4.696;2023-03-15T05:33:22;4.60;99.90
19870;DHT22;10097;50.862;4.696;2023-03-15T05:35:49;4.50;99.90
19870;DHT22;10097;50.862;4.696;2023-03-15T05:38:19;4.40;99.90
19870;DHT22;10097;50.862;4.696;2023-03-15T05:40:51;4.40;99.90
19870;DHT22;10097;50.862;4.696;2023-03-15T05:43:16;4.30;99.90
19870;DHT22;10097;50.862;4.696;2023-03-15T05:45:42;4.20;99.90
19870;DHT22;10097;50.862;4.696;2023-03-15T05:48:09;4.20;99.90
19870;DHT22;10097;50.862;4.696;2023-03-15T05:50:34;4.10;99.90
19870;DHT22;10097;50.862;4.696;2023-03-15T05:53:00;4.10;99.90
19870;DHT22;10097;50.862;4.696;2023-03-15T05:55:27;4.00;99.90
19870;DHT22;10097;50.862;4.696;2023-03-15T05:57:53;3.90;99.90
19870;DHT22;10097;50.862;4.696;2023-03-15T06:00:19;3.90;99.90
19870;DHT22;10097;50.862;4.696;2023-03-15T06:02:45;3.90;99.90
19870;DHT22;10097;50.862;4.696;2023-03-15T06:05:11;3.90;99.90
19870;DHT22;10097;50.862;4.696;2023-03-15T06:07:37;3.90;99.90
19870;DHT22;10097;50.862;4.696;2023-03-15T06:10:03;3.80;99.90
19870;DHT22;10097;50.862;4.696;2023-03-15T06:12:29;3.80;99.90
19870;DHT22;10097;50.862;4.696;2023-03-15T06:14:54;3.80;99.90
19870;DHT22;10097;50.862;4.696;2023-03-15T06:17:20;3.80;99.90
19870;DHT22;10097;50.862;4.696;2023-03-15T06:19:46;3.90;99.90
19870;DHT22;10097;50.862;4.696;2023-03-15T06:22:11;3.90;99.90
19870;DHT22;10097;50.862;4.696;2023-03-15T06:24:37;3.80;99.90
19870;DHT22;10097;50.862;4.696;2023-03-15T06:27:03;3.80;99.90
19870;DHT22;10097;50.862;4.696;2023-03-15T06:29:29;3.80;99.90
19870;DHT22;10097;50.862;4.696;2023-03-15T06:31:54;3.80;99.90
19870;DHT22;10097;50.862;4.696;2023-03-15T06:34:20;3.80;99.90
19870;DHT22;10097;50.862;4.696;2023-03-15T06:36:46;3.90;99.90
19870;DHT22;10097;50.862;4.696;2023-03-15T06:39:12;3.90;99.90
19870;DHT22;10097;50.862;4.696;2023-03-15T06:41:38;3.90;99.90
19870;DHT22;10097;50.862;4.696;2023-03-15T06:44:07;3.90;99.90
19870;DHT22;10097;50.862;4.696;2023-03-15T06:46:33;4.00;99.90
19870;DHT22;10097;50.862;4.696;2023-03-15T06:48:59;4.10;99.90
19870;DHT22;10097;50.862;4.696;2023-03-15T06:51:25;4.20;99.90
19870;DHT22;10097;50.862;4.696;2023-03-15T06:53:51;4.20;99.90
19870;DHT22;10097;50.862;4.696;2023-03-15T06:56:16;4.20;99.90
19870;DHT22;10097;50.862;4.696;2023-03-15T06:58:42;4.30;99.90
19870;DHT22;10097;50.862;4.696;2023-03-15T07:01:11;4.40;99.90
19870;DHT22;10097;50.862;4.696;2023-03-15T07:03:38;4.50;99.90
19870;DHT22;10097;50.862;4.696;2023-03-15T07:06:04;4.50;99.90
19870;DHT22;10097;50.862;4.696;2023-03-15T07:08:29;4.60;99.90
19870;DHT22;10097;50.862;4.696;2023-03-15T07:10:55;4.60;99.90
19870;DHT22;10097;50.862;4.696;2023-03-15T07:13:22;4.70;99.90
19870;DHT22;10097;50.862;4.696;2023-03-15T07:15:54;4.80;99.90
19870;DHT22;10097;50.862;4.696;2023-03-15T07:18:21;4.90;99.90
19870;DHT22;10097;50.862;4.696;2023-03-15T07:20:47;4.90;99.90
19870;DHT22;10097;50.862;4.696;2023-03-15T07:23:19;4.90;99.90
19870;DHT22;10097;50.862;4.696;2023-03-15T07:25:47;4.90;99.90
19870;DHT22;10097;50.862;4.696;2023-03-15T07:28:13;4.90;99.90
19870;DHT22;10097;50.862;4.696;2023-03-15T07:30:39;4.90;99.90
19870;DHT22;10097;50.862;4.696;2023-03-15T07:33:05;5.10;99.90
19870;DHT22;10097;50.862;4.696;2023-03-15T07:35:30;5.00;99.90
19870;DHT22;10097;50.862;4.696;2023-03-15T07:37:56;5.10;99.90
19870;DHT22;10097;50.862;4.696;2023-03-15T07:40:22;5.10;99.90
19870;DHT22;10097;50.862;4.696;2023-03-15T07:42:48;5.10;99.90
19870;DHT22;10097;50.862;4.696;2023-03-15T07:45:13;5.20;99.90
19870;DHT22;10097;50.862;4.696;2023-03-15T07:47:39;5.10;99.90
19870;DHT22;10097;50.862;4.696;2023-03-15T07:50:05;5.10;99.90
19870;DHT22;10097;50.862;4.696;2023-03-15T07:52:32;5.10;99.90
19870;DHT22;10097;50.862;4.696;2023-03-15T07:54:57;5.20;99.90
19870;DHT22;10097;50.862;4.696;2023-03-15T07:57:23;5.30;99.90
19870;DHT22;10097;50.862;4.696;2023-03-15T07:59:49;5.40;99.90
19870;DHT22;10097;50.862;4.696;2023-03-15T08:02:16;5.50;99.90
19870;DHT22;10097;50.862;4.696;2023-03-15T08:04:42;5.40;99.90
19870;DHT22;10097;50.862;4.696;2023-03-15T08:07:09;5.60;99.90
19870;DHT22;10097;50.862;4.696;2023-03-15T08:09:35;5.60;99.90
19870;DHT22;10097;50.862;4.696;2023-03-15T08:12:01;5.80;99.90
19870;DHT22;10097;50.862;4.696;2023-03-15T08:14:27;5.90;99.90
19870;DHT22;10097;50.862;4.696;2023-03-15T08:16:53;6.10;99.90
19870;DHT22;10097;50.862;4.696;2023-03-15T08:19:19;6.10;99.90
19870;DHT22;10097;50.862;4.696;2023-03-15T08:21:44;6.10;99.90
19870;DHT22;10097;50.862;4.696;2023-03-15T08:24:11;6.20;99.90
19870;DHT22;10097;50.862;4.696;2023-03-15T08:26:37;6.30;99.90
19870;DHT22;10097;50.862;4.696;2023-03-15T08:29:03;6.60;99.90
19870;DHT22;10097;50.862;4.696;2023-03-15T08:31:29;6.80;99.90
19870;DHT22;10097;50.862;4.696;2023-03-15T08:34:01;7.00;99.90
19870;DHT22;10097;50.862;4.696;2023-03-15T08:36:28;7.30;99.90
19870;DHT22;10097;50.862;4.696;2023-03-15T08:38:54;7.40;99.90
19870;DHT22;10097;50.862;4.696;2023-03-15T08:41:21;7.40;99.90
19870;DHT22;10097;50.862;4.696;2023-03-15T08:43:46;7.40;99.90
19870;DHT22;10097;50.862;4.696;2023-03-15T08:46:12;7.60;99.90
19870;DHT22;10097;50.862;4.696;2023-03-15T08:48:38;7.60;99.90
19870;DHT22;10097;50.862;4.696;2023-03-15T08:51:05;7.80;99.90
19870;DHT22;10097;50.862;4.696;2023-03-15T08:53:31;8.00;99.90
19870;DHT22;10097;50.862;4.696;2023-03-15T08:55:57;8.10;99.90
19870;DHT22;10097;50.862;4.696;2023-03-15T08:58:22;8.30;99.90
19870;DHT22;10097;50.862;4.696;2023-03-15T09:00:49;8.50;99.90
19870;DHT22;10097;50.862;4.696;2023-03-15T09:03:16;8.60;99.90
19870;DHT22;10097;50.862;4.696;2023-03-15T09:05:42;8.60;99.90
19870;DHT22;10097;50.862;4.696;2023-03-15T09:08:07;8.50;99.90
19870;DHT22;10097;50.862;4.696;2023-03-15T09:10:33;8.60;99.90
19870;DHT22;10097;50.862;4.696;2023-03-15T09:12:59;8.40;99.90
19870;DHT22;10097;50.862;4.696;2023-03-15T09:15:25;8.00;99.90
19870;DHT22;10097;50.862;4.696;2023-03-15T09:17:51;7.90;99.90
19870;DHT22;10097;50.862;4.696;2023-03-15T09:20:17;7.70;99.90
19870;DHT22;10097;50.862;4.696;2023-03-15T09:22:51;7.70;99.90
19870;DHT22;10097;50.862;4.696;2023-03-15T09:25:18;7.70;99.90
19870;DHT22;10097;50.862;4.696;2023-03-15T09:27:44;7.90;99.90
19870;DHT22;10097;50.862;4.696;2023-03-15T09:30:10;8.10;99.90
19870;DHT22;10097;50.862;4.696;2023-03-15T09:32:36;8.40;99.90
19870;DHT22;10097;50.862;4.696;2023-03-15T09:35:03;8.60;99.90
19870;DHT22;10097;50.862;4.696;2023-03-15T09:37:29;8.70;99.90
19870;DHT22;10097;50.862;4.696;2023-03-15T09:39:54;9.10;99.90
19870;DHT22;10097;50.862;4.696;2023-03-15T09:54:02;9.40;99.90
19870;DHT22;10097;50.862;4.696;2023-03-15T09:56:36;9.20;99.90
19870;DHT22;10097;50.862;4.696;2023-03-15T09:59:05;8.80;99.90
19870;DHT22;10097;50.862;4.696;2023-03-15T10:01:39;9.00;99.90
19870;DHT22;10097;50.862;4.696;2023-03-15T10:06:42;9.20;99.90
19870;DHT22;10097;50.862;4.696;2023-03-15T10:09:14;9.30;99.90
19870;DHT22;10097;50.862;4.696;2023-03-15T10:14:24;9.30;99.90
19870;DHT22;10097;50.862;4.696;2023-03-15T10:16:52;9.40;99.90
19870;DHT22;10097;50.862;4.696;2023-03-15T10:19:39;9.70;99.90
19870;DHT22;10097;50.862;4.696;2023-03-15T10:22:18;10.00;99.90
19870;DHT22;10097;50.862;4.696;2023-03-15T10:30:01;9.70;99.90
19870;DHT22;10097;50.862;4.696;2023-03-15T10:32:38;9.70;99.90
19870;DHT22;10097;50.862;4.696;2023-03-15T10:35:14;9.60;99.90
19870;DHT22;10097;50.862;4.696;2023-03-15T10:37:40;9.30;99.90
19870;DHT22;10097;50.862;4.696;2023-03-15T10:40:07;9.50;99.90
19870;DHT22;10097;50.862;4.696;2023-03-15T10:42:44;9.50;99.90
19870;DHT22;10097;50.862;4.696;2023-03-15T10:45:24;9.70;99.90
19870;DHT22;10097;50.862;4.696;2023-03-15T10:47:51;9.80;99.90
19870;DHT22;10097;50.862;4.696;2023-03-15T10:50:28;10.00;99.90
19870;DHT22;10097;50.862;4.696;2023-03-15T10:52:59;10.20;99.90
19870;DHT22;10097;50.862;4.696;2023-03-15T10:55:42;10.30;99.90
19870;DHT22;10097;50.862;4.696;2023-03-15T10:58:41;10.60;99.90
19870;DHT22;10097;50.862;4.696;2023-03-15T11:01:25;11.10;99.90
19870;DHT22;10097;50.862;4.696;2023-03-15T11:04:14;11.20;99.90
19870;DHT22;10097;50.862;4.696;2023-03-15T11:09:18;11.50;99.90
19870;DHT22;10097;50.862;4.696;2023-03-15T11:12:00;11.80;99.90
19870;DHT22;10097;50.862;4.696;2023-03-15T11:14:47;11.90;99.90
19870;DHT22;10097;50.862;4.696;2023-03-15T11:17:23;11.90;99.90
19870;DHT22;10097;50.862;4.696;2023-03-15T11:19:56;12.10;99.90
19870;DHT22;10097;50.862;4.696;2023-03-15T11:22:22;12.50;99.90
19870;DHT22;10097;50.862;4.696;2023-03-15T11:24:49;13.00;99.90
19870;DHT22;10097;50.862;4.696;2023-03-15T11:27:16;13.10;99.90
19870;DHT22;10097;50.862;4.696;2023-03-15T11:29:47;13.40;99.90
19870;DHT22;10097;50.862;4.696;2023-03-15T11:32:39;13.60;99.90
19870;DHT22;10097;50.862;4.696;2023-03-15T11:35:07;13.00;99.90
19870;DHT22;10097;50.862;4.696;2023-03-15T11:37:44;12.10;99.90
19870;DHT22;10097;50.862;4.696;2023-03-15T11:40:32;11.60;99.90
19870;DHT22;10097;50.862;4.696;2023-03-15T11:43:14;12.00;99.90
19870;DHT22;10097;50.862;4.696;2023-03-15T11:45:55;12.00;99.90
19870;DHT22;10097;50.862;4.696;2023-03-15T11:48:34;12.20;99.90
19870;DHT22;10097;50.862;4.696;2023-03-15T11:51:05;12.50;99.90
19870;DHT22;10097;50.862;4.696;2023-03-15T11:53:37;12.70;99.90
19870;DHT22;10097;50.862;4.696;2023-03-15T11:56:24;13.10;99.90
19870;DHT22;10097;50.862;4.696;2023-03-15T11:59:03;13.10;99.90
19870;DHT22;10097;50.862;4.696;2023-03-15T12:01:33;13.20;99.90
19870;DHT22;10097;50.862;4.696;2023-03-15T12:06:56;13.60;99.90
19870;DHT22;10097;50.862;4.696;2023-03-15T12:12:18;13.60;99.90
19870;DHT22;10097;50.862;4.696;2023-03-15T12:17:35;13.00;99.90
19870;DHT22;10097;50.862;4.696;2023-03-15T12:22:56;12.80;99.90
19870;DHT22;10097;50.862;4.696;2023-03-15T12:25:34;12.60;99.90
19870;DHT22;10097;50.862;4.696;2023-03-15T12:28:06;12.80;99.90
19870;DHT22;10097;50.862;4.696;2023-03-15T12:30:39;12.90;99.90
19870;DHT22;10097;50.862;4.696;2023-03-15T12:33:14;12.90;99.90
19870;DHT22;10097;50.862;4.696;2023-03-15T12:35:41;12.90;99.90
19870;DHT22;10097;50.862;4.696;2023-03-15T12:38:14;12.60;99.90
19870;DHT22;10097;50.862;4.696;2023-03-15T12:40:56;12.80;99.90
19870;DHT22;10097;50.862;4.696;2023-03-15T12:43:52;12.90;99.90
19870;DHT22;10097;50.862;4.696;2023-03-15T12:46:57;13.20;99.90
19870;DHT22;10097;50.862;4.696;2023-03-15T12:51:59;13.20;99.90
19870;DHT22;10097;50.862;4.696;2023-03-15T12:54:48;13.30;99.90
19870;DHT22;10097;50.862;4.696;2023-03-15T12:57:27;13.10;99.90
19870;DHT22;10097;50.862;4.696;2023-03-15T12:59:54;13.00;99.90
19870;DHT22;10097;50.862;4.696;2023-03-15T13:02:42;13.00;99.90
19870;DHT22;10097;50.862;4.696;2023-03-15T13:10:15;13.10;99.90
19870;DHT22;10097;50.862;4.696;2023-03-15T13:21:34;13.70;99.90
19870;DHT22;10097;50.862;4.696;2023-03-15T13:24:00;13.70;99.90
19870;DHT22;10097;50.862;4.696;2023-03-15T13:26:46;13.90;99.90
19870;DHT22;10097;50.862;4.696;2023-03-15T13:29:22;14.10;99.90
19870;DHT22;10097;50.862;4.696;2023-03-15T13:32:11;14.20;99.90
19870;DHT22;10097;50.862;4.696;2023-03-15T13:34:37;14.30;99.90
19870;DHT22;10097;50.862;4.696;2023-03-15T13:37:05;14.10;99.90
19870;DHT22;10097;50.862;4.696;2023-03-15T13:39:36;14.00;99.90
19870;DHT22;10097;50.862;4.696;2023-03-15T13:42:17;13.90;99.90
19870;DHT22;10097;50.862;4.696;2023-03-15T13:44:43;13.80;99.90
19870;DHT22;10097;50.862;4.696;2023-03-15T13:47:18;13.60;99.90
19870;DHT22;10097;50.862;4.696;2023-03-15T13:49:44;13.10;99.90
19870;DHT22;10097;50.862;4.696;2023-03-15T13:52:10;12.60;99.90
19870;DHT22;10097;50.862;4.696;2023-03-15T13:54:40;12.70;99.90
19870;DHT22;10097;50.862;4.696;2023-03-15T13:57:13;13.10;99.90
19870;DHT22;10097;50.862;4.696;2023-03-15T14:02:47;13.20;99.90
19870;DHT22;10097;50.862;4.696;2023-03-15T14:05:21;13.70;99.90
19870;DHT22;10097;50.862;4.696;2023-03-15T14:10:31;14.20;99.90
19870;DHT22;10097;50.862;4.696;2023-03-15T14:13:45;14.40;99.90
19870;DHT22;10097;50.862;4.696;2023-03-15T14:15:46;14.90;99.90
19870;DHT22;10097;50.862;4.696;2023-03-15T14:18:20;15.30;99.90
19870;DHT22;10097;50.862;4.696;2023-03-15T14:20:53;15.60;99.90
19870;DHT22;10097;50.862;4.696;2023-03-15T14:23:23;15.80;99.90
19870;DHT22;10097;50.862;4.696;2023-03-15T14:28:38;16.00;99.90
19870;DHT22;10097;50.862;4.696;2023-03-15T14:31:05;15.60;99.90
19870;DHT22;10097;50.862;4.696;2023-03-15T14:33:39;15.10;99.90
19870;DHT22;10097;50.862;4.696;2023-03-15T14:36:52;14.60;99.90
19870;DHT22;10097;50.862;4.696;2023-03-15T14:38:54;14.40;99.90
19870;DHT22;10097;50.862;4.696;2023-03-15T14:41:23;14.20;99.90
19870;DHT22;10097;50.862;4.696;2023-03-15T14:43:50;14.00;99.90
19870;DHT22;10097;50.862;4.696;2023-03-15T14:46:15;13.90;99.90
19870;DHT22;10097;50.862;4.696;2023-03-15T14:48:41;14.00;99.90
19870;DHT22;10097;50.862;4.696;2023-03-15T14:51:15;14.20;99.90
19870;DHT22;10097;50.862;4.696;2023-03-15T14:53:42;14.30;99.90
19870;DHT22;10097;50.862;4.696;2023-03-15T14:56:14;14.60;99.90
19870;DHT22;10097;50.862;4.696;2023-03-15T14:58:41;14.80;99.90
19870;DHT22;10097;50.862;4.696;2023-03-15T15:01:12;15.10;99.90
19870;DHT22;10097;50.862;4.696;2023-03-15T15:03:42;15.30;99.90
19870;DHT22;10097;50.862;4.696;2023-03-15T15:06:13;15.30;99.90
19870;DHT22;10097;50.862;4.696;2023-03-15T15:08:42;15.20;99.90
19870;DHT22;10097;50.862;4.696;2023-03-15T15:11:09;14.90;99.90
19870;DHT22;10097;50.862;4.696;2023-03-15T15:13:36;14.90;99.90
19870;DHT22;10097;50.862;4.696;2023-03-15T15:16:03;14.60;99.90
19870;DHT22;10097;50.862;4.696;2023-03-15T15:18:32;14.20;99.90
19870;DHT22;10097;50.862;4.696;2023-03-15T15:21:05;14.10;99.90
19870;DHT22;10097;50.862;4.696;2023-03-15T15:23:38;14.00;99.90
19870;DHT22;10097;50.862;4.696;2023-03-15T15:26:16;13.90;99.90
19870;DHT22;10097;50.862;4.696;2023-03-15T15:28:43;13.90;99.90
19870;DHT22;10097;50.862;4.696;2023-03-15T15:31:13;13.90;99.90
19870;DHT22;10097;50.862;4.696;2023-03-15T15:33:39;14.00;99.90
19870;DHT22;10097;50.862;4.696;2023-03-15T15:36:15;14.00;99.90
19870;DHT22;10097;50.862;4.696;2023-03-15T15:38:41;14.20;99.90
19870;DHT22;10097;50.862;4.696;2023-03-15T15:41:13;14.20;99.90
19870;DHT22;10097;50.862;4.696;2023-03-15T15:43:40;14.30;99.90
19870;DHT22;10097;50.862;4.696;2023-03-15T15:46:08;14.40;99.90
19870;DHT22;10097;50.862;4.696;2023-03-15T15:48:35;14.40;99.90
19870;DHT22;10097;50.862;4.696;2023-03-15T15:51:01;14.30;99.90
19870;DHT22;10097;50.862;4.696;2023-03-15T15:53:29;14.20;99.90
19870;DHT22;10097;50.862;4.696;2023-03-15T15:55:56;14.10;99.90
19870;DHT22;10097;50.862;4.696;2023-03-15T15:58:22;13.90;99.90
19870;DHT22;10097;50.862;4.696;2023-03-15T16:00:48;13.70;99.90
19870;DHT22;10097;50.862;4.696;2023-03-15T16:03:13;13.60;99.90
19870;DHT22;10097;50.862;4.696;2023-03-15T16:05:39;13.60;99.90
19870;DHT22;10097;50.862;4.696;2023-03-15T16:08:06;13.60;99.90
19870;DHT22;10097;50.862;4.696;2023-03-15T16:10:32;13.50;99.90
19870;DHT22;10097;50.862;4.696;2023-03-15T16:13:02;13.50;99.90
19870;DHT22;10097;50.862;4.696;2023-03-15T16:15:28;13.50;99.90
19870;DHT22;10097;50.862;4.696;2023-03-15T16:17:54;13.50;99.90
19870;DHT22;10097;50.862;4.696;2023-03-15T16:20:20;13.40;99.90
19870;DHT22;10097;50.862;4.696;2023-03-15T16:22:49;13.40;99.90
19870;DHT22;10097;50.862;4.696;2023-03-15T16:25:22;13.30;99.90
19870;DHT22;10097;50.862;4.696;2023-03-15T16:27:52;13.40;99.90
19870;DHT22;10097;50.862;4.696;2023-03-15T16:30:24;13.30;99.90
19870;DHT22;10097;50.862;4.696;2023-03-15T16:32:51;13.20;99.90
19870;DHT22;10097;50.862;4.696;2023-03-15T16:35:37;13.00;99.90
19870;DHT22;10097;50.862;4.696;2023-03-15T16:38:05;12.80;99.90
19870;DHT22;10097;50.862;4.696;2023-03-15T16:40:33;12.70;99.90
19870;DHT22;10097;50.862;4.696;2023-03-15T16:43:00;12.60;99.90
19870;DHT22;10097;50.862;4.696;2023-03-15T16:45:26;12.50;99.90
19870;DHT22;10097;50.862;4.696;2023-03-15T16:47:52;12.40;99.90
19870;DHT22;10097;50.862;4.696;2023-03-15T16:50:18;12.30;99.90
19870;DHT22;10097;50.862;4.696;2023-03-15T16:52:46;12.20;99.90
19870;DHT22;10097;50.862;4.696;2023-03-15T16:55:14;12.20;99.90
19870;DHT22;10097;50.862;4.696;2023-03-15T16:57:41;12.10;99.90
19870;DHT22;10097;50.862;4.696;2023-03-15T17:00:13;12.10;99.90